Time;durP1;ratioP1;P1;durP2;ratioP2;P2;SDS_P1;SDS_P2;PMS_P1;PMS_P2;Temp;Humidity;BMP_temperature;BMP_pressure;BME280_temperature;BME280_humidity;BME280_pressure;Samples;Min_cycle;Max_cycle;Signal;HPM_P1;HPM_P2
2022/10/05 00:00:30;;;;;;;1.30;1.20;;;;;;;14.26;65.26;101316.06;5100994;29;20052;-79
2022/10/05 00:03:10;;;;;;;1.25;1.15;;;;;;;14.19;65.25;101308.38;5066394;29;20553;-80
2022/10/05 00:05:41;;;;;;;0.30;0.30;;;;;;;14.16;65.33;101312.88;5077355;29;20031;-80
2022/10/05 00:08:17;;;;;;;0.73;0.73;;;;;;;14.21;64.78;101309.19;5100433;29;20070;-80
2022/10/05 00:10:48;;;;;;;2.53;1.08;;;;;;;14.19;64.56;101306.63;5090893;28;20671;-79
2022/10/05 00:13:20;;;;;;;0.63;0.63;;;;;;;14.20;64.38;101297.78;5071185;29;20077;-80
2022/10/05 00:16:04;;;;;;;0.65;0.65;;;;;;;14.13;64.64;101305.03;5088068;29;20130;-79
2022/10/05 00:18:34;;;;;;;1.10;1.00;;;;;;;14.12;64.53;101303.31;5088202;29;20039;-80
2022/10/05 00:21:18;;;;;;;0.95;0.95;;;;;;;14.14;64.30;101309.41;5077038;29;20054;-79
2022/10/05 00:23:49;;;;;;;0.50;0.50;;;;;;;14.09;64.28;101300.75;5115493;28;20561;-79
2022/10/05 00:26:25;;;;;;;0.40;0.40;;;;;;;14.07;64.42;101297.34;5104248;29;20070;-79
2022/10/05 00:28:55;;;;;;;0.50;0.50;;;;;;;14.01;64.78;101297.50;5092554;29;20043;-79
2022/10/05 00:31:31;;;;;;;0.30;0.30;;;;;;;14.04;64.19;101297.41;5121883;29;20047;-80
2022/10/05 00:34:02;;;;;;;0.47;0.47;;;;;;;14.01;64.39;101297.50;5093960;28;20043;-79
2022/10/05 00:36:32;;;;;;;3.28;1.95;;;;;;;13.96;64.44;101289.78;5075966;29;20095;-79
2022/10/05 00:39:03;;;;;;;1.55;1.20;;;;;;;13.91;64.56;101285.56;5072018;28;20067;-79
2022/10/05 00:41:40;;;;;;;1.45;1.17;;;;;;;13.93;64.61;101283.69;5081171;29;20110;-79
2022/10/05 00:44:49;;;;;;;0.60;0.60;;;;;;;13.91;64.22;101281.13;5068394;28;20039;-79
2022/10/05 00:47:50;;;;;;;0.57;0.57;;;;;;;13.91;64.02;101285.56;5107842;28;20035;-80
2022/10/05 00:50:20;;;;;;;0.93;0.93;;;;;;;13.90;64.11;101289.09;5104900;29;20045;-80
2022/10/05 00:53:13;;;;;;;0.50;0.50;;;;;;;13.83;64.37;101293.69;5105262;28;20591;-79
2022/10/05 00:55:51;;;;;;;2.10;0.93;;;;;;;13.79;64.19;101285.03;5087296;28;20078;-79
2022/10/05 00:58:31;;;;;;;0.45;0.45;;;;;;;13.82;64.35;101287.56;5068375;29;20039;-80
2022/10/05 01:01:09;;;;;;;0.63;0.63;;;;;;;13.76;64.70;101287.75;5086403;29;20035;-79
2022/10/05 01:03:46;;;;;;;0.38;0.38;;;;;;;13.71;64.95;101286.19;5071437;29;20055;-79
2022/10/05 01:06:32;;;;;;;0.60;0.60;;;;;;;13.69;64.53;101292.38;5100519;29;20137;-79
2022/10/05 01:09:17;;;;;;;0.40;0.40;;;;;;;13.69;65.10;101294.13;5074675;28;20053;-79
2022/10/05 01:11:59;;;;;;;0.55;0.55;;;;;;;13.69;64.71;101294.13;5096870;29;20035;-79
2022/10/05 01:14:57;;;;;;;2.75;1.70;;;;;;;13.63;64.90;101292.56;5069263;28;20043;-79
2022/10/05 01:18:05;;;;;;;0.40;0.40;;;;;;;13.62;64.85;101292.59;5102164;28;20558;-79
2022/10/05 01:21:09;;;;;;;0.80;0.80;;;;;;;13.68;64.73;101289.75;5085174;29;20186;-79
2022/10/05 01:23:55;;;;;;;1.42;1.33;;;;;;;13.59;64.98;101284.78;5087051;29;20420;-79
2022/10/05 01:26:41;;;;;;;0.55;0.55;;;;;;;13.62;64.66;101287.31;5101987;29;20062;-79
2022/10/05 01:29:20;;;;;;;0.40;0.40;;;;;;;13.59;65.44;101290.06;5104980;28;20288;-79
2022/10/05 01:32:03;;;;;;;0.30;0.30;;;;;;;13.58;65.06;101272.50;5098327;29;20496;-80
2022/10/05 01:34:40;;;;;;;0.50;0.50;;;;;;;13.56;64.96;101272.53;5087538;29;20050;-80
2022/10/05 01:37:35;;;;;;;0.25;0.25;;;;;;;13.55;65.49;101265.56;5097632;29;20052;-80
2022/10/05 01:40:17;;;;;;;0.30;0.30;;;;;;;13.50;65.71;101265.72;5114437;28;20050;-79
2022/10/05 01:42:55;;;;;;;0.73;0.73;;;;;;;13.50;65.51;101265.72;5088375;28;20053;-80
2022/10/05 01:45:36;;;;;;;0.50;0.50;;;;;;;13.47;65.78;101265.78;5088558;29;20051;-80
2022/10/05 01:48:21;;;;;;;1.50;1.05;;;;;;;13.49;65.77;101263.97;5086306;29;20047;-79
2022/10/05 01:51:05;;;;;;;0.38;0.38;;;;;;;13.49;65.21;101263.09;5089651;29;20433;-79
2022/10/05 01:54:11;;;;;;;0.30;0.30;;;;;;;13.48;65.63;101254.34;5085481;29;20134;-79
2022/10/05 01:56:51;;;;;;;2.38;1.00;;;;;;;13.48;65.25;101261.38;5029465;29;20069;-80
2022/10/05 01:59:25;;;;;;;4.93;1.52;;;;;;;13.52;64.94;101252.47;5073399;28;20050;-79
2022/10/05 02:02:03;;;;;;;;;;;;;;;13.52;64.86;101258.59;5069152;29;20121;-79
2022/10/05 02:04:41;;;;;;;0.30;0.30;;;;;;;13.48;65.16;101256.97;5090967;29;19914;-80
2022/10/05 02:07:21;;;;;;;0.50;0.50;;;;;;;13.45;65.39;101262.31;5104664;29;20028;-79
2022/10/05 02:10:13;;;;;;;1.00;1.00;;;;;;;13.44;65.32;101252.69;5100990;29;20075;-79
2022/10/05 02:12:48;;;;;;;0.43;0.43;;;;;;;13.42;65.56;101257.16;5102502;28;20043;-79
2022/10/05 02:15:26;;;;;;;1.40;1.30;;;;;;;13.46;65.22;101250.03;5123862;28;20055;-79
2022/10/05 02:18:08;;;;;;;0.60;0.60;;;;;;;13.45;65.46;101243.88;5074213;29;20047;-79
2022/10/05 02:20:41;;;;;;;0.60;0.60;;;;;;;13.45;65.09;101235.13;5102119;29;20043;-79
2022/10/05 02:23:19;;;;;;;0.60;0.60;;;;;;;13.42;65.86;101244.00;5082507;29;20103;-79
2022/10/05 02:25:52;;;;;;;0.77;0.77;;;;;;;13.43;65.33;101242.19;5116000;29;20035;-79
2022/10/05 02:28:35;;;;;;;2.03;1.50;;;;;;;13.41;65.86;101246.66;5103171;29;20047;-80
2022/10/05 02:31:10;;;;;;;1.23;1.13;;;;;;;13.37;65.68;101235.31;5091181;29;20046;-80
2022/10/05 02:33:40;;;;;;;0.68;0.68;;;;;;;13.39;65.38;101241.44;5104354;29;20279;-80
2022/10/05 02:36:14;;;;;;;1.02;1.02;;;;;;;13.40;65.27;101240.53;5100862;29;20062;-79
2022/10/05 02:39:17;;;;;;;0.73;0.73;;;;;;;13.38;65.39;101234.41;5082644;29;20413;-79
2022/10/05 02:42:12;;;;;;;0.30;0.30;;;;;;;13.36;65.67;101236.22;5104735;29;20046;-79
2022/10/05 02:45:01;;;;;;;1.15;1.08;;;;;;;13.34;65.24;101238.06;5092919;29;20039;-79
2022/10/05 02:47:42;;;;;;;0.40;0.40;;;;;;;13.35;66.60;101231.84;5074862;28;20039;-80
2022/10/05 02:50:26;;;;;;;0.57;0.57;;;;;;;13.26;66.38;101229.53;5073584;29;20076;-79
2022/10/05 02:53:30;;;;;;;1.27;0.55;;;;;;;13.26;65.91;101234.78;5102404;28;20077;-80
2022/10/05 02:56:42;;;;;;;0.68;0.68;;;;;;;13.23;66.16;101226.06;5098896;28;20038;-79
2022/10/05 02:59:20;;;;;;;0.30;0.30;;;;;;;13.26;65.99;101224.25;5085674;29;20571;-79
2022/10/05 03:02:03;;;;;;;0.88;0.82;;;;;;;13.24;66.03;101219.00;5086092;29;20492;-79
2022/10/05 03:05:02;;;;;;;1.50;1.00;;;;;;;13.28;66.02;101223.28;5104829;28;20053;-79
2022/10/05 03:07:43;;;;;;;1.05;0.82;;;;;;;13.27;65.98;101215.41;5065850;28;20034;-80
2022/10/05 03:10:42;;;;;;;0.50;0.50;;;;;;;13.23;66.02;101215.53;5073163;29;20566;-79
2022/10/05 03:13:32;;;;;;;1.02;1.02;;;;;;;13.23;65.86;101212.00;5072994;28;20043;-79
2022/10/05 03:16:09;;;;;;;1.98;0.63;;;;;;;13.21;66.23;101203.31;5090467;28;20488;-79
2022/10/05 03:18:52;;;;;;;0.50;0.50;;;;;;;13.18;66.00;101206.88;5101850;29;20677;-79
2022/10/05 03:21:38;;;;;;;0.63;0.63;;;;;;;13.17;66.21;101207.81;5080886;28;20071;-79
2022/10/05 03:24:36;;;;;;;0.30;0.30;;;;;;;13.17;66.22;101205.19;5075999;29;20072;-79
2022/10/05 03:27:25;;;;;;;0.73;0.73;;;;;;;13.17;66.46;101199.91;5105952;29;20040;-79
2022/10/05 03:30:25;;;;;;;0.60;0.60;;;;;;;13.10;66.79;101200.97;5098093;29;20576;-79
2022/10/05 03:33:08;;;;;;;0.95;0.90;;;;;;;13.10;67.24;101200.97;5083360;29;20416;-79
2022/10/05 03:35:45;;;;;;;1.13;1.05;;;;;;;13.14;66.51;101194.72;5097450;29;20079;-79
2022/10/05 03:38:18;;;;;;;1.02;1.00;;;;;;;13.13;66.80;101182.44;5072756;28;20097;-80
2022/10/05 03:41:01;;;;;;;1.42;1.20;;;;;;;13.13;66.53;101174.53;5089556;29;20035;-79
2022/10/05 03:44:04;;;;;;;0.40;0.40;;;;;;;13.13;66.66;101166.63;5102387;29;20051;-79
2022/10/05 03:47:32;;;;;;;0.60;0.60;;;;;;;13.10;66.92;101166.72;5037943;29;20039;-78
2022/10/05 03:50:33;;;;;;;1.55;1.33;;;;;;;13.18;66.65;101161.22;5012374;29;20040;-79
2022/10/05 03:53:18;;;;;;;0.30;0.30;;;;;;;13.15;67.22;101167.47;5036059;29;20127;-79
2022/10/05 03:55:51;;;;;;;0.52;0.52;;;;;;;13.11;67.06;101168.44;5067204;29;20061;-79
2022/10/05 03:58:33;;;;;;;0.60;0.60;;;;;;;13.12;67.75;101162.28;5069517;29;20056;-78
2022/10/05 04:01:14;;;;;;;0.60;0.60;;;;;;;13.16;69.12;101166.56;5097195;28;20039;-78
2022/10/05 04:03:53;;;;;;;0.75;0.65;;;;;;;13.15;68.38;101164.84;5120357;28;20073;-78
2022/10/05 04:06:32;;;;;;;0.60;0.60;;;;;;;13.22;68.36;101163.72;5097044;28;20031;-78
2022/10/05 04:09:13;;;;;;;1.08;0.98;;;;;;;13.21;69.57;101161.16;5101301;29;20043;-78
2022/10/05 04:11:53;;;;;;;0.50;0.50;;;;;;;13.19;69.01;101169.06;5089082;29;20629;-78
2022/10/05 04:14:40;;;;;;;0.50;0.50;;;;;;;13.23;68.57;101156.66;5090866;28;20062;-78
2022/10/05 04:17:15;;;;;;;0.63;0.63;;;;;;;13.20;68.74;101156.78;5105934;29;20047;-78
2022/10/05 04:19:59;;;;;;;0.50;0.50;;;;;;;13.23;68.32;101160.19;5076054;28;20039;-79
2022/10/05 04:22:42;;;;;;;0.80;0.80;;;;;;;13.32;68.13;101159.03;5105569;28;20090;-79
2022/10/05 04:25:21;;;;;;;0.40;0.40;;;;;;;13.31;69.61;101157.28;5091616;28;20880;-80
2022/10/05 04:28:16;;;;;;;0.85;0.85;;;;;;;13.33;68.58;101157.28;5107023;28;20051;-79
2022/10/05 04:30:50;;;;;;;1.15;1.08;;;;;;;13.40;69.64;101157.94;5119346;28;20085;-79
2022/10/05 04:33:21;;;;;;;0.60;0.60;;;;;;;13.36;68.71;101160.66;5089837;29;20098;-79
2022/10/05 04:36:08;;;;;;;0.65;0.65;;;;;;;13.31;69.30;101159.09;5072963;29;20126;-79
2022/10/05 04:38:44;;;;;;;0.55;0.55;;;;;;;13.38;68.64;101155.34;5101114;29;20058;-80
2022/10/05 04:41:43;;;;;;;0.50;0.50;;;;;;;13.30;69.90;101159.97;5119483;28;20038;-80
2022/10/05 04:44:25;;;;;;;0.85;0.82;;;;;;;13.26;70.78;101153.09;5102178;28;20048;-79
2022/10/05 04:47:08;;;;;;;0.63;0.63;;;;;;;13.36;69.86;101163.31;5111412;28;20130;-79
2022/10/05 04:50:06;;;;;;;0.50;0.50;;;;;;;13.35;70.47;101161.56;5079198;28;20058;-79
2022/10/05 04:53:17;;;;;;;0.88;0.85;;;;;;;13.40;69.40;101169.38;5099391;28;20039;-80
2022/10/05 04:55:53;;;;;;;0.50;0.50;;;;;;;13.40;69.81;101168.50;5072261;29;20051;-79
2022/10/05 04:58:35;;;;;;;1.13;1.13;;;;;;;13.32;70.65;101172.19;5115213;28;20080;-79
2022/10/05 05:01:20;;;;;;;0.70;0.70;;;;;;;13.36;69.85;101167.69;5074085;29;20686;-79
2022/10/05 05:04:17;;;;;;;0.80;0.80;;;;;;;13.38;69.21;101164.16;5087484;29;20047;-79
2022/10/05 05:06:47;;;;;;;2.20;1.48;;;;;;;13.37;69.48;101170.31;5097062;29;20047;-80
2022/10/05 05:09:46;;;;;;;0.68;0.68;;;;;;;13.32;69.64;101172.19;5083408;29;20131;-79
2022/10/05 05:12:49;;;;;;;0.55;0.47;;;;;;;13.25;69.77;101164.56;5087051;29;20050;-80
2022/10/05 05:15:25;;;;;;;0.40;0.40;;;;;;;13.31;68.87;101169.63;5104121;28;20039;-80
2022/10/05 05:18:24;;;;;;;1.35;0.57;;;;;;;13.30;69.00;101167.88;5098123;28;20054;-80
2022/10/05 05:21:01;;;;;;;1.95;1.15;;;;;;;13.31;69.21;101164.34;5115552;29;20415;-80
2022/10/05 05:23:56;;;;;;;0.52;0.52;;;;;;;13.33;69.75;101167.81;5085227;29;20047;-79
2022/10/05 05:26:42;;;;;;;0.73;0.73;;;;;;;13.32;69.05;101169.56;5103476;29;20111;-79
2022/10/05 05:29:21;;;;;;;0.77;0.60;;;;;;;13.31;69.81;101167.00;5088516;29;20055;-79
2022/10/05 05:32:32;;;;;;;1.33;1.20;;;;;;;13.35;69.31;101171.22;5114866;29;20053;-79
2022/10/05 05:35:31;;;;;;;0.40;0.40;;;;;;;13.33;69.19;101173.06;5077711;29;20054;-79
2022/10/05 05:38:37;;;;;;;0.50;0.50;;;;;;;13.36;69.17;101167.69;5091805;29;20043;-79
2022/10/05 05:41:13;;;;;;;0.52;0.52;;;;;;;13.32;69.22;101166.94;5105008;29;20081;-79
2022/10/05 05:44:02;;;;;;;1.25;1.15;;;;;;;13.30;69.13;101170.53;5085618;29;20039;-79
2022/10/05 05:46:44;;;;;;;0.65;0.65;;;;;;;13.27;69.02;101171.50;5071050;29;20079;-80
2022/10/05 05:49:23;;;;;;;0.30;0.30;;;;;;;13.34;69.64;101174.81;5083048;29;20047;-79
2022/10/05 05:52:06;;;;;;;0.57;0.57;;;;;;;13.35;69.27;101166.84;5097635;29;20051;-80
2022/10/05 05:54:48;;;;;;;0.32;0.32;;;;;;;13.32;69.17;101161.66;5083905;28;20035;-79
2022/10/05 05:57:28;;;;;;;0.30;0.30;;;;;;;13.33;69.24;101173.06;5099352;29;20118;-80
2022/10/05 06:00:09;;;;;;;0.50;0.50;;;;;;;13.36;69.01;101170.31;5082871;29;20050;-79
2022/10/05 06:03:19;;;;;;;0.45;0.45;;;;;;;13.35;69.08;101171.22;5086197;28;20051;-79
2022/10/05 06:06:00;;;;;;;0.60;0.60;;;;;;;13.35;69.45;101176.50;5061290;29;20087;-79
2022/10/05 06:08:42;;;;;;;0.60;0.60;;;;;;;13.37;69.12;101169.41;5095063;29;20062;-79
2022/10/05 06:11:36;;;;;;;0.22;0.22;;;;;;;13.35;68.79;101171.22;5104206;29;20031;-79
2022/10/05 06:14:12;;;;;;;;;;;;;;;13.37;68.81;101170.31;5103426;29;20051;-79
2022/10/05 06:16:56;;;;;;;0.32;0.32;;;;;;;13.38;69.19;101174.69;5095892;29;20272;-79
2022/10/05 06:19:28;;;;;;;3.03;0.55;;;;;;;13.40;68.68;101179.91;5089744;29;20065;-79
2022/10/05 06:22:12;;;;;;;0.45;0.45;;;;;;;13.43;69.06;101171.03;5106183;29;20035;-79
2022/10/05 06:24:48;;;;;;;0.50;0.50;;;;;;;13.46;68.63;101182.34;5089721;28;20481;-79
2022/10/05 06:27:56;;;;;;;1.33;1.23;;;;;;;13.44;69.18;101176.25;5090679;28;20039;-79
2022/10/05 06:30:55;;;;;;;0.90;0.90;;;;;;;13.42;69.51;101172.81;5106175;29;20058;-79
2022/10/05 06:33:49;;;;;;;0.40;0.40;;;;;;;13.44;68.73;101176.25;5097321;29;20043;-79
2022/10/05 06:36:46;;;;;;;0.77;0.73;;;;;;;13.45;70.17;101183.25;5088858;29;20593;-79
2022/10/05 06:39:20;;;;;;;0.43;0.43;;;;;;;13.47;69.47;101184.06;5087910;29;20063;-80
2022/10/05 06:41:53;;;;;;;;;;;;;;;13.44;69.88;101178.88;5072566;29;20136;-80
2022/10/05 06:44:36;;;;;;;0.45;0.45;;;;;;;13.49;69.07;101170.84;5107213;28;19922;-80
2022/10/05 06:47:22;;;;;;;0.40;0.40;;;;;;;13.47;70.03;101176.16;5088986;29;20061;-81
2022/10/05 06:50:09;;;;;;;0.52;0.52;;;;;;;13.53;71.51;101169.84;5086059;29;20078;-80
2022/10/05 06:53:13;;;;;;;0.40;0.40;;;;;;;13.54;70.18;101166.28;5118487;28;20078;-80
2022/10/05 06:55:56;;;;;;;0.75;0.75;;;;;;;13.57;70.01;101168.81;5090617;29;20476;-81
2022/10/05 06:58:54;;;;;;;0.88;0.85;;;;;;;13.65;69.86;101168.56;5071638;28;20086;-83
2022/10/05 07:01:44;;;;;;;0.45;0.45;;;;;;;13.65;70.10;101169.41;5102729;29;20732;-82
2022/10/05 07:04:23;;;;;;;0.60;0.60;;;;;;;13.66;70.86;101171.16;5086418;29;20098;-82
2022/10/05 07:07:10;;;;;;;0.65;0.65;;;;;;;13.62;70.15;101173.94;5096595;29;20035;-81
2022/10/05 07:10:17;;;;;;;0.52;0.52;;;;;;;13.63;70.05;101171.28;5076450;29;20053;-81
2022/10/05 07:12:55;;;;;;;0.80;0.80;;;;;;;13.66;70.03;101170.31;5101553;28;20051;-81
2022/10/05 07:15:48;;;;;;;0.40;0.40;;;;;;;13.67;70.19;101172.03;5111695;29;20063;-81
2022/10/05 07:18:48;;;;;;;2.00;1.05;;;;;;;13.69;70.18;101160.50;5104051;29;20114;-81
2022/10/05 07:21:45;;;;;;;0.40;0.40;;;;;;;13.71;70.19;101162.25;5102949;29;20047;-81
2022/10/05 07:24:15;;;;;;;1.27;1.23;;;;;;;13.71;70.12;101163.09;5070640;29;20067;-81
2022/10/05 07:26:58;;;;;;;0.35;0.35;;;;;;;13.74;70.05;101159.47;5071809;29;20070;-81
2022/10/05 07:29:36;;;;;;;0.32;0.32;;;;;;;13.75;69.87;101164.72;5091172;29;20045;-82
2022/10/05 07:32:35;;;;;;;0.35;0.35;;;;;;;13.77;69.95;101168.16;5067723;29;20237;-80
2022/10/05 07:38:56;;;;;;;0.43;0.43;;;;;;;13.85;69.87;101158.22;5081923;29;20043;-81
2022/10/05 07:41:51;;;;;;;0.63;0.63;;;;;;;13.83;72.01;101165.34;5073894;29;20712;-81
2022/10/05 07:44:46;;;;;;;0.77;0.77;;;;;;;13.90;70.00;101160.69;5086772;29;20058;-80
2022/10/05 07:47:35;;;;;;;0.30;0.30;;;;;;;13.91;70.62;101154.50;5105051;29;20054;-81
2022/10/05 07:50:18;;;;;;;0.38;0.38;;;;;;;13.91;71.07;101162.41;5100199;29;20043;-82
2022/10/05 07:53:09;;;;;;;;;;;;;;;13.93;70.65;101157.09;5107482;28;20557;-82
2022/10/05 07:55:46;;;;;;;0.77;0.77;;;;;;;13.97;70.60;101158.72;5073705;29;19937;-80
2022/10/05 07:58:22;;;;;;;0.25;0.25;;;;;;;14.04;71.50;101160.22;5070135;29;20105;-82
2022/10/05 08:01:24;;;;;;;13.35;1.67;;;;;;;14.00;72.10;101158.63;5085647;29;20507;-81
2022/10/05 08:04:06;;;;;;;0.82;0.82;;;;;;;14.08;72.15;101156.59;5089109;29;20050;-81
2022/10/05 08:06:58;;;;;;;1.35;1.08;;;;;;;14.14;71.46;101151.09;5100457;29;20035;-82
2022/10/05 08:09:36;;;;;;;0.30;0.30;;;;;;;14.20;72.19;101157.94;5103080;29;20039;-82
2022/10/05 08:12:29;;;;;;;0.30;0.30;;;;;;;14.21;71.98;101156.13;5094097;29;20047;-82
2022/10/05 08:15:22;;;;;;;0.30;0.30;;;;;;;14.24;72.67;101151.59;5108831;29;20059;-82
2022/10/05 08:18:35;;;;;;;0.20;0.20;;;;;;;14.28;72.73;101157.63;5106860;29;20051;-83
2022/10/05 08:21:10;;;;;;;0.20;0.20;;;;;;;14.36;72.47;101160.88;5091978;29;20403;-82
2022/10/05 08:23:56;;;;;;;0.55;0.55;;;;;;;14.41;72.26;101158.06;5088692;29;20378;-82
2022/10/05 08:26:47;;;;;;;1.38;0.75;;;;;;;14.51;72.08;101161.22;5086737;29;20853;-82
2022/10/05 08:29:44;;;;;;;0.30;0.30;;;;;;;14.54;71.52;101161.13;5069750;29;20054;-82
2022/10/05 08:32:54;;;;;;;1.02;0.90;;;;;;;14.60;71.86;101152.97;5055281;29;20039;-83
2022/10/05 08:35:43;;;;;;;0.35;0.35;;;;;;;14.64;72.02;101155.44;5087615;29;20582;-85
2022/10/05 08:38:35;;;;;;;1.45;0.88;;;;;;;14.68;72.22;101150.94;5082021;29;20079;-83
2022/10/05 08:41:27;;;;;;;0.60;0.60;;;;;;;14.69;72.29;101152.66;5076170;29;20038;-84
2022/10/05 08:44:26;;;;;;;0.40;0.40;;;;;;;14.83;71.66;101153.94;5098967;29;20066;-82
2022/10/05 08:47:31;;;;;;;0.43;0.43;;;;;;;14.86;72.05;101151.16;5082419;29;20043;-83
2022/10/05 08:50:30;;;;;;;0.55;0.55;;;;;;;14.90;71.86;101158.91;5097302;28;20051;-82
2022/10/05 08:53:39;;;;;;;0.43;0.43;;;;;;;14.95;72.51;101156.09;5071559;29;20523;-83
2022/10/05 08:56:12;;;;;;;0.20;0.20;;;;;;;15.06;71.99;101163.59;5102164;29;20043;-82
2022/10/05 08:58:56;;;;;;;0.30;0.30;;;;;;;15.11;72.09;101154.56;5097304;29;20055;-82
2022/10/05 09:01:35;;;;;;;;;;;;;;;15.14;71.95;101148.31;5072216;29;20645;-81
2022/10/05 09:04:22;;;;;;;0.30;0.30;;;;;;;15.19;71.70;101142.84;5102898;29;19945;-83
2022/10/05 09:07:13;;;;;;;0.55;0.50;;;;;;;15.27;71.56;101138.97;5101591;29;20039;-81
2022/10/05 09:10:29;;;;;;;0.68;0.68;;;;;;;15.37;71.18;101149.19;5091525;29;20126;-83
2022/10/05 09:13:19;;;;;;;0.65;0.43;;;;;;;15.42;70.99;101142.75;5086006;29;20078;-81
2022/10/05 09:16:11;;;;;;;1.00;0.90;;;;;;;15.40;71.02;101138.47;5100957;29;20058;-83
2022/10/05 09:18:52;;;;;;;0.50;0.50;;;;;;;15.49;71.40;101142.53;5033687;29;20059;-83
2022/10/05 09:21:39;;;;;;;0.77;0.77;;;;;;;15.46;70.73;101145.28;5084580;29;20054;-83
2022/10/05 09:24:42;;;;;;;0.30;0.30;;;;;;;15.55;70.64;101137.00;5083758;29;20059;-84
2022/10/05 09:27:17;;;;;;;0.25;0.25;;;;;;;15.67;70.01;101135.63;5097685;29;20043;-82
2022/10/05 09:30:28;;;;;;;0.35;0.35;;;;;;;15.65;70.25;101135.69;5083631;29;20793;-82
2022/10/05 09:34:02;;;;;;;0.57;0.43;;;;;;;15.64;69.66;101141.91;5101073;29;20039;-83
2022/10/05 09:36:51;;;;;;;0.67;0.67;;;;;;;15.76;69.13;101140.53;5027226;29;20127;-82
2022/10/05 09:39:47;;;;;;;0.43;0.43;;;;;;;15.74;69.00;101142.38;5093480;29;20484;-81
2022/10/05 09:42:27;;;;;;;0.30;0.30;;;;;;;15.78;68.72;101143.09;5090871;29;20039;-82
2022/10/05 09:45:30;;;;;;;0.22;0.22;;;;;;;15.78;69.46;101143.09;5089696;29;20417;-83
2022/10/05 09:48:08;;;;;;;0.68;0.68;;;;;;;15.80;69.51;101141.25;5090052;29;20051;-82
2022/10/05 09:50:47;;;;;;;0.40;0.40;;;;;;;15.94;68.73;101138.91;5085545;29;20088;-81
2022/10/05 09:53:52;;;;;;;0.30;0.30;;;;;;;15.87;68.85;101138.28;5093421;29;20126;-81
2022/10/05 09:56:59;;;;;;;0.57;0.47;;;;;;;15.92;68.38;101138.09;5111098;29;20043;-83
2022/10/05 09:59:41;;;;;;;0.38;0.38;;;;;;;16.00;68.47;101133.34;5073528;29;20073;-82
2022/10/05 10:02:15;;;;;;;0.70;0.70;;;;;;;15.95;68.70;101130.03;5071754;29;20048;-82
2022/10/05 10:05:04;;;;;;;;;;;;;;;15.98;68.71;101139.63;5071999;29;20694;-82
2022/10/05 10:08:03;;;;;;;0.32;0.32;;;;;;;16.00;68.85;101137.78;5056797;29;19926;-82
2022/10/05 10:11:00;;;;;;;0.30;0.30;;;;;;;16.03;68.51;101132.38;5070729;29;20036;-82
2022/10/05 10:13:52;;;;;;;0.30;0.30;;;;;;;16.14;68.25;101129.25;5084549;29;20052;-81
2022/10/05 10:16:48;;;;;;;0.30;0.30;;;;;;;16.17;68.13;101137.03;5073648;29;20075;-81
2022/10/05 10:19:24;;;;;;;0.45;0.45;;;;;;;16.23;68.37;101136.78;5066469;29;20048;-81
2022/10/05 10:22:15;;;;;;;0.20;0.20;;;;;;;16.26;68.35;101133.13;5074580;29;20058;-82
2022/10/05 10:25:23;;;;;;;0.30;0.30;;;;;;;16.36;67.97;101130.00;5075416;29;20103;-82
2022/10/05 10:28:14;;;;;;;0.43;0.43;;;;;;;16.40;68.32;101135.19;5059535;29;20052;-82
2022/10/05 10:31:15;;;;;;;0.57;0.57;;;;;;;16.42;67.66;101134.19;5090680;29;20099;-82
2022/10/05 10:34:15;;;;;;;0.32;0.32;;;;;;;16.54;67.50;101127.47;5075034;29;20044;-82
2022/10/05 10:36:45;;;;;;;0.30;0.30;;;;;;;16.67;66.95;101122.47;5075477;29;20036;-82
2022/10/05 10:39:34;;;;;;;0.32;0.32;;;;;;;16.73;66.64;101131.91;5095778;29;20055;-82
2022/10/05 10:42:23;;;;;;;0.20;0.20;;;;;;;16.71;66.30;101117.88;5091985;29;20044;-81
2022/10/05 10:44:57;;;;;;;0.80;0.80;;;;;;;16.78;65.45;101114.00;5082894;29;20113;-80
2022/10/05 10:47:39;;;;;;;0.73;0.73;;;;;;;16.82;65.73;101112.91;5099467;29;20489;-81
2022/10/05 10:50:36;;;;;;;0.20;0.20;;;;;;;16.81;65.68;101113.88;5070136;29;20040;-82
2022/10/05 10:53:16;;;;;;;0.30;0.30;;;;;;;16.87;66.08;101096.78;5083783;29;20059;-81
2022/10/05 10:56:13;;;;;;;0.45;0.45;;;;;;;16.91;65.92;101096.56;5095919;29;20480;-81
2022/10/05 10:59:02;;;;;;;0.30;0.30;;;;;;;17.05;65.17;101089.81;5082896;29;20143;-81
2022/10/05 11:02:04;;;;;;;0.20;0.20;;;;;;;17.05;64.95;101080.03;5068439;29;20039;-81
2022/10/05 11:04:53;;;;;;;0.30;0.30;;;;;;;17.16;64.94;101066.25;5087952;29;20515;-81
2022/10/05 11:07:51;;;;;;;1.95;1.23;;;;;;;17.17;63.94;101073.28;5070611;29;20199;-84
2022/10/05 11:10:42;;;;;;;0.20;0.20;;;;;;;17.22;64.21;101070.41;5100262;29;20054;-83
2022/10/05 11:13:16;;;;;;;2.83;0.43;;;;;;;17.24;64.88;101069.41;5102564;29;20047;-84
2022/10/05 11:15:59;;;;;;;0.50;0.50;;;;;;;17.30;65.22;101058.50;5101710;29;20043;-84
2022/10/05 11:19:15;;;;;;;0.40;0.40;;;;;;;17.49;64.31;101057.56;5085059;29;20055;-83
2022/10/05 11:22:30;;;;;;;0.40;0.40;;;;;;;17.61;62.88;101041.03;5075733;29;20054;-84
2022/10/05 11:25:13;;;;;;;0.40;0.40;;;;;;;17.66;63.07;101045.22;5058666;29;20045;-83
2022/10/05 11:28:21;;;;;;;0.40;0.40;;;;;;;17.79;63.25;101035.69;5116811;29;20058;-84
2022/10/05 11:31:16;;;;;;;0.40;0.40;;;;;;;17.92;62.27;101033.25;5082629;29;20103;-84
2022/10/05 11:34:11;;;;;;;0.20;0.20;;;;;;;18.14;61.27;101032.97;5108458;29;20051;-83
2022/10/05 11:37:10;;;;;;;0.68;0.68;;;;;;;18.31;60.93;101025.88;5102896;29;20436;-83
2022/10/05 11:40:19;;;;;;;0.28;0.28;;;;;;;18.34;60.23;101012.44;5116900;29;20047;-84
2022/10/05 11:42:59;;;;;;;0.30;0.30;;;;;;;18.45;58.72;100999.44;5075776;28;20047;-84
2022/10/05 11:46:06;;;;;;;0.70;0.70;;;;;;;18.64;58.79;100998.38;5095777;29;20035;-82
2022/10/05 11:48:56;;;;;;;0.20;0.20;;;;;;;18.80;58.24;100993.91;5088587;29;20076;-83
2022/10/05 11:51:51;;;;;;;0.30;0.30;;;;;;;18.66;60.09;100999.16;5105032;29;20053;-81
2022/10/05 11:54:37;;;;;;;0.25;0.25;;;;;;;18.94;58.26;100981.66;5107200;29;20058;-81
2022/10/05 11:57:09;;;;;;;0.20;0.20;;;;;;;19.17;56.81;100970.53;5090944;29;21473;-80
2022/10/05 12:02:45;;;;;;;0.20;0.20;;;;;;;19.14;57.16;100962.72;5155775;28;20064;-82
2022/10/05 12:05:35;;;;;;;0.20;0.20;;;;;;;19.43;55.61;100960.13;5116423;28;20517;-82
2022/10/05 12:08:32;;;;;;;0.30;0.30;;;;;;;19.66;55.41;100953.41;5168688;28;20049;-83
2022/10/05 12:11:14;;;;;;;0.30;0.30;;;;;;;19.56;57.06;100962.91;5135682;28;20549;-83
2022/10/05 12:13:50;;;;;;;0.25;0.25;;;;;;;19.60;56.54;100958.25;5106546;28;20070;-86
2022/10/05 12:16:30;;;;;;;0.20;0.20;;;;;;;19.75;56.28;100943.97;5092587;28;20490;-84
2022/10/05 12:19:30;;;;;;;0.50;0.50;;;;;;;19.67;57.67;100941.78;5140695;28;20062;-85
2022/10/05 12:22:28;;;;;;;0.52;0.52;;;;;;;19.95;55.83;100939.25;5122069;28;20042;-86
2022/10/05 12:25:23;;;;;;;0.50;0.50;;;;;;;20.10;54.28;100927.63;5117228;28;20043;-85
2022/10/05 12:27:59;;;;;;;0.40;0.40;;;;;;;20.04;54.95;100914.66;5129360;28;20047;-84
2022/10/05 12:30:33;;;;;;;0.20;0.20;;;;;;;20.20;55.18;100911.88;5132342;28;20035;-85
2022/10/05 12:33:19;;;;;;;0.28;0.28;;;;;;;20.19;56.18;100912.84;5156549;28;20078;-83
2022/10/05 12:36:20;;;;;;;0.43;0.43;;;;;;;20.48;54.67;100910.09;5156950;28;20035;-84
2022/10/05 12:38:53;;;;;;;0.40;0.40;;;;;;;20.59;52.85;100902.22;5121127;28;20057;-86
2022/10/05 12:41:31;;;;;;;0.20;0.20;;;;;;;20.62;54.77;100900.31;5120757;28;20182;-86
2022/10/05 12:44:20;;;;;;;0.20;0.20;;;;;;;20.99;51.78;100895.22;5130305;28;20038;-84
2022/10/05 12:47:08;;;;;;;0.25;0.25;;;;;;;21.02;50.83;100893.19;5131068;28;20046;-85
2022/10/05 12:49:53;;;;;;;0.20;0.20;;;;;;;21.19;51.37;100888.50;5160188;28;20447;-84
2022/10/05 12:52:42;;;;;;;0.32;0.32;;;;;;;21.10;50.80;100873.97;5146113;28;20094;-84
2022/10/05 12:55:25;;;;;;;0.43;0.40;;;;;;;21.30;50.84;100875.25;5098801;28;20070;-83
2022/10/05 12:58:33;;;;;;;0.38;0.38;;;;;;;21.41;50.49;100874.47;5169275;28;20050;-83
2022/10/05 13:01:25;;;;;;;0.20;0.20;;;;;;;21.43;49.99;100872.56;5167959;28;20026;-82
2022/10/05 13:04:31;;;;;;;0.20;0.20;;;;;;;21.53;50.04;100854.06;5166612;28;20042;-83
2022/10/05 13:07:29;;;;;;;0.20;0.20;;;;;;;21.62;51.03;100858.78;5148690;28;20050;-83